Time;durP1;ratioP1;P1;durP2;ratioP2;P2;SDS_P1;SDS_P2;PMS_P1;PMS_P2;Temp;Humidity;BMP_temperature;BMP_pressure;BME280_temperature;BME280_humidity;BME280_pressure;Samples;Min_cycle;Max_cycle;Signal;HPM_P1;HPM_P2
2023/03/15 00:01:29;;;;;;;16.23;1.70;;;;;;;0.50;89.27;100283.41;6005888;28;20126;-73
2023/03/15 00:04:26;;;;;;;3.67;0.87;;;;;;;0.44;88.97;100283.78;6005008;28;20434;-71
2023/03/15 00:07:24;;;;;;;6.57;0.70;;;;;;;0.53;88.42;100294.50;6005229;28;20030;-71
2023/03/15 00:10:19;;;;;;;9.98;0.85;;;;;;;0.56;88.56;100304.78;6005616;28;20031;-74
2023/03/15 00:13:16;;;;;;;4.30;0.90;;;;;;;0.52;88.95;100305.03;6004627;28;20046;-74
2023/03/15 00:16:16;;;;;;;5.20;0.85;;;;;;;0.46;89.00;100311.44;6005301;28;20505;-71
2023/03/15 00:19:11;;;;;;;9.50;1.20;;;;;;;0.42;89.56;100311.72;6005280;28;20474;-73
2023/03/15 00:22:07;;;;;;;7.25;1.00;;;;;;;0.44;89.88;100307.25;6004330;28;20090;-72
2023/03/15 00:25:02;;;;;;;3.72;1.27;;;;;;;0.46;89.66;100315.84;6004830;28;20030;-72
2023/03/15 00:27:58;;;;;;;3.47;0.77;;;;;;;0.46;88.83;100308.03;6005018;28;20034;-72
2023/03/15 00:31:04;;;;;;;12.90;1.93;;;;;;;0.55;88.45;100323.09;6004310;28;20044;-71
2023/03/15 00:33:59;;;;;;;3.97;0.80;;;;;;;0.45;89.13;100307.19;6004319;28;20054;-73
2023/03/15 00:36:54;;;;;;;11.63;1.53;;;;;;;0.50;88.54;100322.53;6004891;28;20034;-73
2023/03/15 00:39:50;;;;;;;8.90;1.07;;;;;;;0.49;89.23;100315.66;6004169;28;20545;-72
2023/03/15 00:42:48;;;;;;;2.65;0.80;;;;;;;0.55;88.32;100323.09;6003540;28;20038;-72
2023/03/15 00:45:44;;;;;;;7.65;1.23;;;;;;;0.60;88.77;100339.31;6004455;28;20034;-72
2023/03/15 00:48:39;;;;;;;15.47;1.40;;;;;;;0.72;88.71;100345.56;6004631;28;20035;-71
2023/03/15 00:51:36;;;;;;;6.72;1.15;;;;;;;0.70;88.63;100353.50;6004200;28;20278;-74
2023/03/15 00:54:34;;;;;;;4.68;0.95;;;;;;;0.63;88.86;100340.88;6003949;28;20031;-71
2023/03/15 00:57:32;;;;;;;3.58;1.33;;;;;;;0.48;88.51;100340.91;6003930;28;20039;-71
2023/03/15 01:00:27;;;;;;;2.33;0.68;;;;;;;0.40;89.25;100339.69;6004479;28;20031;-70
2023/03/15 01:03:23;;;;;;;3.97;1.00;;;;;;;0.39;89.66;100348.41;6003068;28;20031;-73
2023/03/15 01:06:21;;;;;;;13.37;1.10;;;;;;;0.39;89.69;100343.22;6003958;28;20169;-70
2023/03/15 01:09:16;;;;;;;5.18;0.82;;;;;;;0.42;89.68;100338.66;6004186;28;20478;-71
2023/03/15 01:12:11;;;;;;;7.93;1.10;;;;;;;0.48;89.28;100343.50;6003252;28;20054;-72
2023/03/15 01:15:08;;;;;;;8.00;1.40;;;;;;;0.42;89.40;100353.47;6003778;28;20027;-73
2023/03/15 01:18:03;;;;;;;5.28;1.35;;;;;;;0.46;88.79;100352.34;6003852;28;20418;-74
2023/03/15 01:20:59;;;;;;;6.43;0.90;;;;;;;0.47;89.38;100348.81;6004096;28;20037;-73
2023/03/15 01:23:54;;;;;;;4.30;1.13;;;;;;;0.57;89.09;100355.97;6002806;28;20040;-74
2023/03/15 01:26:49;;;;;;;4.53;1.00;;;;;;;0.76;88.68;100363.53;6003259;28;20042;-71
2023/03/15 01:29:44;;;;;;;5.17;0.83;;;;;;;0.80;87.91;100354.59;6003854;28;20107;-72
2023/03/15 01:32:40;;;;;;;7.17;0.70;;;;;;;1.06;86.04;100361.66;6002478;28;20054;-73
2023/03/15 01:35:35;;;;;;;1.97;0.67;;;;;;;1.22;84.83;100358.13;6002852;28;20089;-73
2023/03/15 01:38:31;;;;;;;4.20;0.90;;;;;;;1.39;84.13;100374.41;6003522;28;20039;-72
2023/03/15 01:41:26;;;;;;;8.50;1.52;;;;;;;1.44;84.11;100371.50;6003345;28;20407;-72
2023/03/15 01:44:23;;;;;;;4.70;1.23;;;;;;;1.49;83.94;100380.75;6002386;28;20043;-71
2023/03/15 01:47:18;;;;;;;3.70;0.90;;;;;;;1.45;83.12;100360.13;6003095;28;20689;-72
2023/03/15 01:50:14;;;;;;;5.10;0.88;;;;;;;1.45;83.05;100354.88;6003387;28;20034;-72
2023/03/15 01:53:09;;;;;;;7.78;1.00;;;;;;;1.46;83.91;100360.03;6002149;28;20035;-72
2023/03/15 01:56:05;;;;;;;9.00;1.40;;;;;;;1.58;83.23;100379.28;6001054;28;20038;-72
2023/03/15 01:59:02;;;;;;;8.40;1.17;;;;;;;1.55;82.87;100354.19;6003235;28;20050;-70
2023/03/15 02:01:59;;;;;;;6.25;0.82;;;;;;;1.66;82.83;100377.88;6001001;28;20066;-72
2023/03/15 02:05:08;;;;;;;4.95;0.90;;;;;;;1.69;82.48;100377.69;6002010;28;20037;-72
2023/03/15 02:08:05;;;;;;;5.30;0.80;;;;;;;1.63;82.67;100366.81;6001516;28;20105;-72
2023/03/15 02:11:03;;;;;;;3.72;0.80;;;;;;;1.65;82.03;100359.69;6003090;28;20035;-73
2023/03/15 02:13:59;;;;;;;5.57;1.55;;;;;;;1.62;82.30;100360.72;6002030;28;20049;-73
2023/03/15 02:16:54;;;;;;;5.95;0.75;;;;;;;1.69;82.47;100376.84;5991614;28;20117;-73
2023/03/15 02:19:59;;;;;;;2.97;1.10;;;;;;;1.61;82.94;100374.72;6002012;28;20047;-72
2023/03/15 02:22:56;;;;;;;5.97;1.13;;;;;;;1.62;82.38;100371.19;6002122;28;20258;-72
2023/03/15 02:26:13;;;;;;;6.22;1.73;;;;;;;1.71;82.99;100381.03;6001313;28;20043;-72
2023/03/15 02:29:08;;;;;;;11.43;1.65;;;;;;;1.65;82.21;100386.66;6017426;28;20121;-73
2023/03/15 02:32:04;;;;;;;5.28;1.20;;;;;;;1.60;81.83;100367.81;6001495;28;20420;-73
2023/03/15 02:34:59;;;;;;;2.55;0.68;;;;;;;1.71;81.77;100390.66;6002377;28;20542;-72
2023/03/15 02:37:54;;;;;;;6.57;1.20;;;;;;;1.60;82.12;100377.44;6002215;28;20613;-71
2023/03/15 02:40:51;;;;;;;6.50;1.40;;;;;;;1.63;81.84;100393.75;6002584;28;20501;-71
2023/03/15 02:43:49;;;;;;;5.80;1.33;;;;;;;1.58;82.35;100379.28;6001204;28;20023;-72
2023/03/15 02:46:47;;;;;;;4.93;0.93;;;;;;;1.74;81.49;100390.44;6017155;28;20037;-70
2023/03/15 02:49:44;;;;;;;4.07;1.00;;;;;;;1.75;81.90;100397.34;6002376;28;20035;-71
2023/03/15 02:52:39;;;;;;;6.88;1.52;;;;;;;1.70;81.44;100399.44;5999911;28;20058;-72
2023/03/15 02:55:34;;;;;;;7.00;1.35;;;;;;;1.61;81.43;100394.78;6003109;28;20066;-71
2023/03/15 02:58:31;;;;;;;6.27;1.20;;;;;;;1.73;81.12;100409.69;6007269;28;20046;-70
2023/03/15 03:01:26;;;;;;;8.07;1.17;;;;;;;1.70;81.59;100412.50;6006663;28;20685;-72
2023/03/15 03:04:21;;;;;;;7.57;1.57;;;;;;;1.70;81.62;100415.09;6006278;28;20037;-71
2023/03/15 03:07:17;;;;;;;7.25;1.23;;;;;;;1.69;81.33;100409.03;6007160;28;20089;-70
2023/03/15 03:10:16;;;;;;;3.85;1.20;;;;;;;1.72;82.11;100418.47;6006885;28;20054;-73
2023/03/15 03:13:11;;;;;;;9.98;1.90;;;;;;;1.75;81.96;100428.72;6006050;28;20027;-73
2023/03/15 03:16:07;;;;;;;9.48;1.50;;;;;;;1.63;82.05;100421.66;6006508;28;20398;-72
2023/03/15 03:19:02;;;;;;;9.70;1.30;;;;;;;1.66;82.41;100432.75;6006677;28;20462;-71
2023/03/15 03:21:58;;;;;;;3.80;1.02;;;;;;;1.50;83.14;100424.19;6005988;28;20042;-72
2023/03/15 03:24:53;;;;;;;8.03;2.23;;;;;;;1.53;83.03;100438.84;6005929;28;20034;-72
2023/03/15 03:27:48;;;;;;;3.80;1.00;;;;;;;1.50;83.83;100449.47;6006272;28;20091;-72
2023/03/15 03:30:44;;;;;;;10.03;1.13;;;;;;;1.43;84.38;100449.03;6006318;28;20097;-72
2023/03/15 03:33:39;;;;;;;5.70;1.33;;;;;;;1.34;84.84;100446.13;6005461;28;20051;-71
2023/03/15 03:36:34;;;;;;;4.73;1.10;;;;;;;1.32;85.13;100456.69;6006134;28;20042;-72
2023/03/15 03:39:30;;;;;;;2.60;1.10;;;;;;;1.19;84.92;100450.53;6006137;28;20038;-73
2023/03/15 03:42:25;;;;;;;10.45;1.52;;;;;;;1.22;85.39;100465.19;6005643;28;20042;-72
2023/03/15 03:45:20;;;;;;;6.73;1.10;;;;;;;1.25;85.60;100475.44;6006350;28;20157;-72
2023/03/15 03:48:16;;;;;;;6.03;1.30;;;;;;;1.31;84.85;100475.03;6005667;28;20061;-71
2023/03/15 03:51:11;;;;;;;4.20;1.10;;;;;;;1.18;85.98;100465.38;6006079;28;20027;-73
2023/03/15 03:54:06;;;;;;;3.60;1.20;;;;;;;1.30;86.34;100483.84;6005264;28;20042;-73
2023/03/15 03:57:02;;;;;;;3.23;1.60;;;;;;;1.16;86.27;100482.91;6005540;28;20033;-72
2023/03/15 03:59:57;;;;;;;8.88;1.50;;;;;;;1.19;86.55;100487.94;6005820;28;20510;-73
2023/03/15 04:02:53;;;;;;;5.90;1.60;;;;;;;1.21;86.88;100482.63;6004770;28;20037;-72
2023/03/15 04:05:48;;;;;;;6.47;1.20;;;;;;;1.23;87.71;100487.72;6005106;28;20058;-72
2023/03/15 04:08:43;;;;;;;4.43;1.20;;;;;;;1.20;87.16;100500.03;6005471;28;20065;-71
2023/03/15 04:11:41;;;;;;;9.33;1.40;;;;;;;1.19;88.05;100514.06;6005918;28;20038;-70
2023/03/15 04:14:36;;;;;;;5.80;1.42;;;;;;;1.13;89.16;100517.03;6005041;28;20509;-71
2023/03/15 04:17:32;;;;;;;6.40;1.70;;;;;;;1.08;89.44;100506.03;6005022;28;20034;-72
2023/03/15 04:20:27;;;;;;;7.27;1.93;;;;;;;1.06;89.57;100533.97;6005509;28;20038;-73
2023/03/15 04:23:22;;;;;;;3.63;1.50;;;;;;;1.00;90.51;100534.34;6004456;28;20046;-71
2023/03/15 04:26:18;;;;;;;15.15;2.35;;;;;;;0.91;91.86;100524.44;6005174;28;20122;-72
2023/03/15 04:29:14;;;;;;;6.77;1.90;;;;;;;1.09;92.58;100546.84;6005305;28;20042;-70
2023/03/15 04:32:09;;;;;;;4.95;1.63;;;;;;;1.09;92.32;100549.44;6004224;28;20061;-73
2023/03/15 04:35:05;;;;;;;5.00;2.28;;;;;;;1.02;92.47;100540.31;6005095;28;20031;-71
2023/03/15 04:38:00;;;;;;;8.80;1.98;;;;;;;1.10;92.75;100545.91;6004389;28;20127;-72
2023/03/15 04:40:56;;;;;;;6.72;1.88;;;;;;;1.11;93.61;100546.78;6004858;28;20034;-71
2023/03/15 04:43:51;;;;;;;9.53;2.60;;;;;;;1.12;93.95;100551.03;6004429;28;20485;-70
2023/03/15 04:46:46;;;;;;;8.30;2.27;;;;;;;1.26;93.36;100564.13;6003382;28;20026;-72
2023/03/15 04:49:41;;;;;;;7.30;2.10;;;;;;;1.32;94.05;100557.69;6004493;28;20038;-72
2023/03/15 04:52:37;;;;;;;8.53;1.80;;;;;;;1.27;93.85;100557.13;6002975;28;20041;-72
2023/03/15 04:55:32;;;;;;;6.00;2.17;;;;;;;1.27;93.20;100555.38;6004591;28;20058;-72
2023/03/15 04:58:27;;;;;;;9.00;1.97;;;;;;;1.27;93.48;100557.97;6004468;28;20038;-73
2023/03/15 05:01:29;;;;;;;6.57;2.23;;;;;;;1.28;94.24;100564.06;6003530;28;20046;-72
2023/03/15 05:04:25;;;;;;;7.13;2.20;;;;;;;1.27;94.54;100562.34;6002973;28;20034;-72
2023/03/15 05:07:20;;;;;;;7.87;2.20;;;;;;;1.31;95.09;100571.69;6004258;28;20505;-72
2023/03/15 05:10:16;;;;;;;4.87;2.00;;;;;;;1.36;95.04;100595.78;6004209;28;20027;-70
2023/03/15 05:13:11;;;;;;;7.72;2.17;;;;;;;1.36;94.90;100604.44;6003476;28;20037;-70
2023/03/15 05:16:06;;;;;;;7.25;2.20;;;;;;;1.44;95.51;100609.22;6004239;28;20060;-70
2023/03/15 05:19:02;;;;;;;7.27;2.30;;;;;;;1.41;95.49;100609.41;6003371;28;20106;-71
2023/03/15 05:21:57;;;;;;;9.60;2.38;;;;;;;1.36;95.77;100598.38;6003127;28;20043;-72
2023/03/15 05:24:53;;;;;;;7.67;1.97;;;;;;;1.45;96.29;100622.19;6003903;28;20053;-71
2023/03/15 05:27:48;;;;;;;7.47;2.45;;;;;;;1.35;95.85;100609.75;6002477;28;20042;-71
2023/03/15 05:30:43;;;;;;;7.90;2.30;;;;;;;1.44;96.35;100622.28;6003179;28;20105;-72
2023/03/15 05:33:45;;;;;;;8.97;2.40;;;;;;;1.46;96.47;100636.09;6002792;28;20463;-72
2023/03/15 05:36:40;;;;;;;4.63;1.90;;;;;;;1.48;96.65;100631.59;6003454;28;20031;-73
2023/03/15 05:39:36;;;;;;;4.13;2.07;;;;;;;1.49;96.43;100635.91;6003749;28;20035;-73
2023/03/15 05:42:31;;;;;;;10.68;2.83;;;;;;;1.52;96.20;100646.19;6002848;28;20023;-73
2023/03/15 05:45:27;;;;;;;6.38;2.40;;;;;;;1.50;96.86;100648.03;6003754;28;20074;-73
2023/03/15 05:48:22;;;;;;;5.40;2.40;;;;;;;1.53;97.51;100650.47;6003427;28;20038;-73
2023/03/15 05:51:18;;;;;;;5.93;2.03;;;;;;;1.48;97.61;100642.06;6003306;28;20039;-71
2023/03/15 05:54:13;;;;;;;4.72;2.10;;;;;;;1.53;97.46;100655.69;6002239;28;20069;-72
2023/03/15 05:57:08;;;;;;;10.03;2.90;;;;;;;1.59;96.86;100665.78;6002552;28;20398;-72
2023/03/15 06:00:04;;;;;;;10.23;2.20;;;;;;;1.56;97.51;100668.56;6003421;28;20026;-73
2023/03/15 06:03:00;;;;;;;4.88;2.10;;;;;;;1.49;97.63;100667.25;6002392;28;20368;-71
2023/03/15 06:05:55;;;;;;;8.50;2.13;;;;;;;1.61;97.59;100688.28;6002894;28;20155;-74
2023/03/15 06:08:50;;;;;;;7.23;1.93;;;;;;;1.52;98.57;100690.59;6003267;28;20031;-71
2023/03/15 06:11:45;;;;;;;6.03;2.40;;;;;;;1.64;98.58;100703.78;6002775;28;20045;-71
2023/03/15 06:14:41;;;;;;;5.03;2.47;;;;;;;1.66;98.28;100708.91;6002337;28;20031;-72
2023/03/15 06:17:36;;;;;;;4.73;2.07;;;;;;;1.62;97.75;100704.81;6002974;28;20394;-71
2023/03/15 06:20:31;;;;;;;9.90;2.20;;;;;;;1.74;97.96;100722.34;6001403;28;20031;-71
2023/03/15 06:23:27;;;;;;;4.30;2.03;;;;;;;1.73;98.04;100711.09;6001282;28;20035;-72
2023/03/15 06:26:22;;;;;;;8.83;2.20;;;;;;;1.77;97.34;100719.56;6001292;28;20093;-72
2023/03/15 06:29:18;;;;;;;8.37;2.57;;;;;;;1.79;97.52;100728.19;6002788;28;20038;-71
2023/03/15 06:32:13;;;;;;;6.60;2.30;;;;;;;1.79;97.01;100733.41;6000697;28;20347;-72
2023/03/15 06:35:08;;;;;;;5.10;1.90;;;;;;;1.76;97.57;100725.75;6001333;28;20096;-71
2023/03/15 06:38:04;;;;;;;12.43;2.25;;;;;;;1.84;96.88;100736.59;6002209;28;20109;-72
2023/03/15 06:41:00;;;;;;;8.63;2.30;;;;;;;1.83;96.87;100745.34;6002019;28;20086;-71
2023/03/15 06:43:55;;;;;;;9.45;2.50;;;;;;;1.87;96.47;100744.25;6000492;28;20062;-72
2023/03/15 06:46:50;;;;;;;8.35;2.60;;;;;;;1.66;97.30;100732.41;6001454;28;20399;-71
2023/03/15 06:49:49;;;;;;;7.90;2.63;;;;;;;1.66;97.06;100753.31;6002256;28;20038;-72
2023/03/15 06:52:44;;;;;;;11.98;2.53;;;;;;;1.48;97.84;100744.78;6001949;28;20039;-72
2023/03/15 06:55:39;;;;;;;7.13;2.20;;;;;;;1.49;98.16;100759.56;6002078;28;20070;-72
2023/03/15 06:58:35;;;;;;;9.20;2.90;;;;;;;1.51;98.56;100780.34;5996506;28;20031;-71
2023/03/15 07:01:30;;;;;;;8.67;2.93;;;;;;;1.71;99.00;100780.06;5992315;28;20035;-73
2023/03/15 07:04:26;;;;;;;12.23;2.95;;;;;;;2.04;98.37;100791.16;6000962;28;20037;-71
2023/03/15 07:07:21;;;;;;;8.27;2.53;;;;;;;2.19;96.24;100790.25;6002319;28;20053;-70
2023/03/15 07:10:16;;;;;;;8.20;2.33;;;;;;;2.26;95.22;100775.03;6002147;28;20503;-72
2023/03/15 07:13:12;;;;;;;5.60;2.40;;;;;;;2.62;95.15;100782.44;6001111;28;20074;-71
2023/03/15 07:16:07;;;;;;;7.13;2.75;;;;;;;2.81;93.43;100782.97;6001400;28;20073;-72
2023/03/15 07:19:02;;;;;;;5.47;2.20;;;;;;;2.88;92.28;100792.97;6001897;28;20113;-71
2023/03/15 07:21:58;;;;;;;8.37;2.33;;;;;;;2.86;91.98;100807.09;6000738;28;20050;-72
2023/03/15 07:24:53;;;;;;;9.37;2.73;;;;;;;2.92;92.10;100806.72;6001459;28;20051;-71
2023/03/15 07:27:49;;;;;;;7.40;2.80;;;;;;;2.80;91.55;100820.59;6000985;28;20513;-72
2023/03/15 07:31:03;;;;;;;8.15;2.38;;;;;;;2.77;92.88;100829.44;5998019;28;20039;-70
2023/03/15 07:33:59;;;;;;;;;;;;;;;2.80;92.81;100826.63;5998391;28;20089;-71
2023/03/15 07:36:54;;;;;;;7.28;2.13;;;;;;;2.71;92.95;100834.22;6001133;28;20314;-70
2023/03/15 07:39:49;;;;;;;7.10;2.60;;;;;;;2.51;92.90;100821.50;6001723;28;20034;-71
2023/03/15 07:42:45;;;;;;;11.27;2.73;;;;;;;2.69;93.83;100843.97;6004059;28;20430;-70
2023/03/15 07:45:40;;;;;;;9.55;3.35;;;;;;;2.55;92.92;100807.31;6004250;28;20038;-70
2023/03/15 07:48:36;;;;;;;8.27;3.10;;;;;;;3.21;92.28;100847.66;6005445;28;20035;-71
2023/03/15 07:51:31;;;;;;;7.47;2.97;;;;;;;3.37;90.83;100840.50;6005704;28;20046;-70
2023/03/15 07:54:28;;;;;;;7.15;2.88;;;;;;;3.24;89.99;100842.22;6004097;28;20277;-70
2023/03/15 07:57:24;;;;;;;7.93;2.80;;;;;;;3.37;89.15;100856.22;6005491;28;20038;-71
2023/03/15 08:00:20;;;;;;;11.10;3.27;;;;;;;3.46;88.77;100850.41;6004936;28;20136;-71
2023/03/15 08:03:16;;;;;;;10.10;3.13;;;;;;;3.36;88.10;100856.34;6004166;28;20494;-71
2023/03/15 08:06:11;;;;;;;7.90;2.90;;;;;;;3.23;88.23;100855.44;6004983;28;20023;-71
2023/03/15 08:09:07;;;;;;;9.57;3.50;;;;;;;3.13;87.54;100856.91;6005630;28;20058;-70
2023/03/15 08:12:02;;;;;;;10.77;3.37;;;;;;;3.26;87.72;100876.19;6004358;28;20282;-70
2023/03/15 08:14:58;;;;;;;14.27;3.80;;;;;;;3.45;87.27;100874.13;6004434;28;20522;-70
2023/03/15 08:17:56;;;;;;;9.32;4.03;;;;;;;3.55;86.52;100875.19;6005109;28;20462;-70
2023/03/15 08:20:51;;;;;;;12.18;3.80;;;;;;;3.51;85.28;100874.53;6005230;28;20121;-71
2023/03/15 08:23:47;;;;;;;11.95;4.60;;;;;;;3.81;85.98;100889.25;6004341;28;20077;-71
2023/03/15 08:26:42;;;;;;;15.80;4.30;;;;;;;4.37;84.04;100880.31;6005037;28;20058;-70
2023/03/15 08:29:37;;;;;;;13.03;4.40;;;;;;;4.52;81.64;100885.34;6003686;28;20496;-70
2023/03/15 08:32:33;;;;;;;15.83;5.10;;;;;;;4.10;81.82;100894.28;6003159;28;20105;-70
2023/03/15 08:35:29;;;;;;;16.90;5.03;;;;;;;3.90;82.74;100901.78;6003759;28;20131;-71
2023/03/15 08:38:25;;;;;;;9.43;3.45;;;;;;;3.45;83.31;100893.28;6005034;28;20039;-71
2023/03/15 08:41:20;;;;;;;28.87;9.37;;;;;;;3.60;84.55;100913.31;6003761;28;20049;-68
2023/03/15 08:44:15;;;;;;;8.97;3.30;;;;;;;4.30;83.73;100905.25;6003361;28;20542;-69
2023/03/15 08:47:11;;;;;;;9.97;3.93;;;;;;;4.96;79.78;100920.88;6003816;28;20293;-70
2023/03/15 08:50:09;;;;;;;8.97;3.60;;;;;;;4.97;78.09;100912.91;6004245;28;20066;-70
2023/03/15 08:53:05;;;;;;;12.90;4.30;;;;;;;4.55;78.18;100921.06;5984915;28;20410;-70
2023/03/15 08:56:00;;;;;;;8.73;2.47;;;;;;;3.82;79.91;100932.91;6004342;28;20038;-70
2023/03/15 08:58:56;;;;;;;7.45;3.10;;;;;;;3.80;81.46;100929.56;6002056;28;20043;-69
2023/03/15 09:01:52;;;;;;;8.83;2.73;;;;;;;4.20;80.18;100932.13;6000862;28;20037;-69
2023/03/15 09:04:47;;;;;;;10.07;3.33;;;;;;;4.73;80.03;100935.56;6002200;28;20037;-70
2023/03/15 09:07:45;;;;;;;7.85;3.28;;;;;;;4.92;78.22;100946.53;6002698;28;20383;-70
2023/03/15 09:10:41;;;;;;;8.00;2.15;;;;;;;4.60;76.41;100943.44;6001472;28;20097;-70
2023/03/15 09:13:36;;;;;;;5.43;2.17;;;;;;;4.36;76.60;100957.34;6002111;28;20494;-70
2023/03/15 09:16:31;;;;;;;7.43;2.63;;;;;;;4.40;77.64;100959.69;6004132;28;20332;-70
2023/03/15 09:19:27;;;;;;;5.40;2.23;;;;;;;5.05;77.43;100967.56;6004097;28;20034;-70
2023/03/15 09:22:22;;;;;;;9.80;2.33;;;;;;;5.39;72.48;100946.72;6002701;28;20050;-70
2023/03/15 09:25:18;;;;;;;8.50;2.47;;;;;;;5.71;71.60;100970.75;6003934;28;20642;-70
2023/03/15 09:28:13;;;;;;;10.45;2.90;;;;;;;5.84;73.00;100953.13;6003603;28;20509;-70
2023/03/15 09:31:08;;;;;;;9.13;2.60;;;;;;;5.77;71.50;100962.44;6002641;28;20049;-70
2023/03/15 09:34:04;;;;;;;4.38;1.98;;;;;;;5.45;71.78;100976.16;6002076;28;20034;-70
2023/03/15 09:36:59;;;;;;;10.30;2.03;;;;;;;5.33;70.00;100968.19;6002566;28;20034;-70
2023/03/15 09:39:55;;;;;;;5.77;2.03;;;;;;;5.38;70.80;100970.50;6003582;28;20114;-70
2023/03/15 09:43:00;;;;;;;6.10;1.83;;;;;;;5.68;70.68;100983.31;6002951;28;20042;-70
2023/03/15 09:46:14;;;;;;;6.38;2.55;;;;;;;5.82;70.32;100991.88;6002383;28;20023;-70
2023/03/15 09:49:20;;;;;;;;;;;;;;;6.15;70.28;100988.66;6003727;28;20079;-70
2023/03/15 09:52:34;;;;;;;3.28;1.50;;;;;;;5.84;69.08;100978.63;6001346;28;19922;-70
2023/03/15 09:55:29;;;;;;;6.50;1.48;;;;;;;5.74;70.26;100982.84;6002406;28;20042;-70
2023/03/15 09:58:34;;;;;;;8.02;1.25;;;;;;;5.35;69.03;100989.13;6003125;28;20030;-70
2023/03/15 10:01:37;;;;;;;5.90;1.40;;;;;;;5.18;70.39;101006.06;6001480;28;20090;-70
2023/03/15 10:04:39;;;;;;;9.23;1.38;;;;;;;5.19;69.87;100997.19;5990275;28;20069;-70
2023/03/15 10:07:34;;;;;;;3.83;0.95;;;;;;;5.44;68.07;101001.63;6000723;28;20039;-70
2023/03/15 10:10:35;;;;;;;7.45;1.38;;;;;;;5.49;68.53;100994.25;6017538;28;20030;-70
2023/03/15 10:13:48;;;;;;;3.92;1.00;;;;;;;5.38;70.09;100992.38;6001566;28;20039;-71
2023/03/15 10:16:45;;;;;;;5.38;1.05;;;;;;;4.64;72.55;100996.63;6001495;28;20038;-71
2023/03/15 10:19:48;;;;;;;8.00;1.25;;;;;;;4.45;76.61;100997.00;6002378;28;20513;-70
2023/03/15 10:22:46;;;;;;;2.30;0.90;;;;;;;4.79;76.72;100999.06;6002196;28;20117;-71
2023/03/15 10:25:42;;;;;;;8.25;1.60;;;;;;;4.82;76.72;100985.72;6016648;28;20035;-70
2023/03/15 10:28:38;;;;;;;13.00;1.65;;;;;;;4.72;76.43;100999.59;6002363;28;20042;-70
2023/03/15 10:31:37;;;;;;;5.40;1.10;;;;;;;4.80;75.17;100999.91;6001275;28;20039;-70
2023/03/15 10:34:34;;;;;;;7.15;1.45;;;;;;;5.37;73.13;100992.50;6000780;28;20038;-70
2023/03/15 10:37:29;;;;;;;5.40;1.35;;;;;;;5.40;68.77;100984.38;6002687;28;20035;-70
2023/03/15 10:40:48;;;;;;;5.00;0.80;;;;;;;5.43;66.71;101006.03;6000921;28;20034;-70
2023/03/15 10:43:56;;;;;;;3.30;0.90;;;;;;;4.95;63.79;101004.13;6002384;28;20038;-71
2023/03/15 10:47:06;;;;;;;4.25;0.80;;;;;;;5.25;65.42;101009.09;6001286;28;20210;-70
2023/03/15 10:50:01;;;;;;;3.75;0.60;;;;;;;5.83;64.59;101004.09;6002148;28;20078;-70
2023/03/15 10:52:58;;;;;;;5.80;0.90;;;;;;;6.56;63.92;100998.81;6001261;28;20034;-71
2023/03/15 10:56:04;;;;;;;1.92;0.65;;;;;;;7.02;61.75;100989.13;6000916;28;20031;-70
2023/03/15 10:59:00;;;;;;;4.93;0.80;;;;;;;7.17;58.74;100998.50;6001631;28;20118;-71
2023/03/15 11:02:11;;;;;;;4.18;1.00;;;;;;;7.31;56.87;101015.09;6000256;28;20045;-71
2023/03/15 11:05:11;;;;;;;4.10;1.23;;;;;;;7.19;56.90;101004.50;6000764;28;20034;-70
2023/03/15 11:08:14;;;;;;;4.35;0.70;;;;;;;7.34;56.37;101001.66;6000644;28;20039;-70
2023/03/15 11:11:09;;;;;;;2.95;0.63;;;;;;;7.33;58.06;101003.47;6001957;28;20038;-70
2023/03/15 11:14:05;;;;;;;0.82;0.50;;;;;;;7.13;56.43;101004.97;6013861;28;20038;-70
2023/03/15 11:17:02;;;;;;;3.08;0.75;;;;;;;7.25;55.22;101013.75;6004190;28;20465;-70
2023/03/15 11:20:09;;;;;;;2.08;0.68;;;;;;;7.36;51.52;101012.94;6005675;28;20478;-70
2023/03/15 11:23:17;;;;;;;5.88;0.60;;;;;;;7.19;49.58;100999.25;6004748;28;20486;-71
2023/03/15 11:26:37;;;;;;;1.38;0.40;;;;;;;7.31;49.23;101013.25;6004485;28;20046;-70
2023/03/15 11:29:33;;;;;;;2.80;0.60;;;;;;;7.66;48.84;101018.47;5997848;28;20105;-70
2023/03/15 11:32:30;;;;;;;3.03;0.75;;;;;;;8.13;48.44;101026.09;6002500;28;20039;-70
2023/03/15 11:35:31;;;;;;;2.70;0.63;;;;;;;8.03;48.10;101026.97;5999486;28;20107;-70
2023/03/15 11:38:42;;;;;;;3.92;0.80;;;;;;;7.20;48.29;101006.19;6000947;28;20049;-71
2023/03/15 11:41:46;;;;;;;6.00;0.82;;;;;;;6.67;50.90;101016.44;6004983;28;20031;-70
2023/03/15 11:44:45;;;;;;;3.75;0.70;;;;;;;6.94;52.50;101030.22;6004361;28;20081;-70
2023/03/15 11:47:48;;;;;;;4.45;0.77;;;;;;;7.22;50.38;101023.69;6004092;28;20082;-70
2023/03/15 11:50:43;;;;;;;4.43;0.73;;;;;;;7.31;50.66;101023.81;6004967;28;20110;-70
2023/03/15 11:54:04;;;;;;;5.53;0.90;;;;;;;7.49;50.79;101026.84;5993589;28;20039;-70
2023/03/15 11:57:27;;;;;;;4.25;1.08;;;;;;;7.92;50.72;101027.81;5991538;28;20126;-70
2023/03/15 12:00:46;;;;;;;3.05;0.50;;;;;;;7.61;51.58;101031.19;6005881;28;20386;-70
2023/03/15 12:03:42;;;;;;;6.90;0.70;;;;;;;7.24;54.36;101032.31;6004211;28;20034;-70
2023/03/15 12:06:38;;;;;;;4.10;0.63;;;;;;;6.45;56.82;101025.09;6006062;28;20117;-70
2023/03/15 12:09:36;;;;;;;5.97;1.20;;;;;;;6.24;59.06;101040.66;6005709;28;20088;-70
2023/03/15 12:12:31;;;;;;;3.90;0.73;;;;;;;6.73;59.68;101034.44;6004401;28;20274;-70
2023/03/15 12:15:29;;;;;;;2.25;0.70;;;;;;;7.43;54.32;101032.59;6004602;28;20133;-70
2023/03/15 12:18:28;;;;;;;2.67;0.93;;;;;;;7.65;51.60;101029.97;6004806;28;20053;-70
2023/03/15 12:21:31;;;;;;;3.50;1.05;;;;;;;7.69;52.07;101023.50;6005310;28;20034;-70
2023/03/15 12:24:29;;;;;;;4.28;0.77;;;;;;;7.68;50.79;101027.09;5980684;28;20031;-69
2023/03/15 12:27:27;;;;;;;3.05;0.80;;;;;;;7.54;48.39;101027.31;6003914;28;20034;-70
2023/03/15 12:30:45;;;;;;;4.50;0.80;;;;;;;7.57;48.51;101029.72;6003372;28;20039;-69
2023/03/15 12:33:57;;;;;;;2.45;0.60;;;;;;;8.21;50.18;101049.25;6003074;28;20043;-70
2023/03/15 12:36:56;;;;;;;5.10;0.60;;;;;;;7.96;48.74;101031.91;6004373;28;20034;-70
2023/03/15 12:40:23;;;;;;;3.88;0.80;;;;;;;7.56;49.90;101054.44;6002781;28;20041;-70
2023/03/15 12:43:36;;;;;;;1.65;0.70;;;;;;;6.83;49.07;101064.44;6003473;28;20066;-69
2023/03/15 12:46:37;;;;;;;3.50;0.80;;;;;;;6.52;52.83;101063.22;6003892;28;20089;-70
2023/03/15 12:49:44;;;;;;;1.95;0.77;;;;;;;6.31;53.10;101054.22;5998176;28;20146;-70
2023/03/15 12:52:41;;;;;;;3.92;0.93;;;;;;;6.71;52.27;101049.53;6000696;28;20049;-70
2023/03/15 12:55:36;;;;;;;3.13;0.55;;;;;;;6.49;50.70;101056.38;6002494;28;20035;-70
2023/03/15 12:58:35;;;;;;;4.00;0.63;;;;;;;5.26;63.46;101073.88;6002396;28;20043;-70
2023/03/15 13:01:32;;;;;;;4.82;0.90;;;;;;;4.67;70.28;101112.81;5994807;28;20134;-70
2023/03/15 13:04:28;;;;;;;3.13;0.75;;;;;;;3.97;74.27;101112.94;6001896;28;20048;-70
2023/03/15 13:07:31;;;;;;;4.25;0.93;;;;;;;3.96;77.28;101127.84;6002313;28;20026;-70
2023/03/15 13:10:33;;;;;;;6.40;0.80;;;;;;;4.03;77.70;101146.66;6001526;28;20116;-70
2023/03/15 13:13:59;;;;;;;5.32;0.95;;;;;;;4.02;79.72;101153.69;6000702;28;20177;-70
2023/03/15 13:17:16;;;;;;;4.05;1.00;;;;;;;4.19;81.65;101161.38;6001016;28;20038;-71
2023/03/15 13:20:26;;;;;;;4.57;0.80;;;;;;;4.71;81.53;101151.06;6001018;28;20027;-71
2023/03/15 13:23:27;;;;;;;1.67;0.80;;;;;;;5.01;78.66;101150.03;6001182;28;20109;-71
2023/03/15 13:26:32;;;;;;;3.83;0.80;;;;;;;5.05;76.28;101156.78;6002433;28;20041;-70
2023/03/15 13:29:29;;;;;;;3.83;1.42;;;;;;;4.88;76.64;101159.66;6000022;28;20467;-71
2023/03/15 13:32:25;;;;;;;2.78;1.02;;;;;;;5.23;76.38;101171.34;6008493;28;20045;-71
2023/03/15 13:35:20;;;;;;;2.87;1.03;;;;;;;5.33;76.25;101152.22;6000076;28;20039;-70
2023/03/15 13:38:25;;;;;;;1.52;0.70;;;;;;;5.45;75.87;101162.88;5999962;28;20061;-70
2023/03/15 13:41:26;;;;;;;3.95;1.10;;;;;;;5.51;73.08;101162.47;6001435;28;20046;-70
2023/03/15 13:44:23;;;;;;;1.42;0.80;;;;;;;5.78;74.00;101153.56;6000987;28;20114;-71
2023/03/15 13:47:20;;;;;;;2.45;0.45;;;;;;;5.52;69.80;101157.09;6000454;28;20042;-70
2023/03/15 13:50:20;;;;;;;3.03;0.80;;;;;;;4.99;69.92;101168.53;6002344;28;20054;-70
2023/03/15 13:53:23;;;;;;;0.65;0.30;;;;;;;4.86;72.33;101166.81;6001026;28;20019;-70
2023/03/15 13:56:20;;;;;;;1.75;0.68;;;;;;;4.94;69.60;101151.38;6016988;28;20130;-71
2023/03/15 13:59:16;;;;;;;4.82;1.05;;;;;;;5.02;71.32;101164.88;6000781;28;20534;-70